createdAt,value
2022-10-01T00:00:17.079Z,11.10
2022-10-01T00:02:45.234Z,11.10
2022-10-01T00:05:13.927Z,11.10
2022-10-01T00:07:44.555Z,11.10
2022-10-01T00:10:15.085Z,11.10
2022-10-01T00:12:47.229Z,11.10
2022-10-01T00:15:21.780Z,11.10
2022-10-01T00:17:51.034Z,11.20
2022-10-01T00:20:19.588Z,11.20
2022-10-01T00:22:47.783Z,11.10
2022-10-01T00:25:16.013Z,11.20
2022-10-01T00:27:46.688Z,11.20
2022-10-01T00:30:20.212Z,11.20
2022-10-01T00:32:48.373Z,11.10
2022-10-01T00:35:16.640Z,11.20
2022-10-01T00:37:46.042Z,11.20
2022-10-01T00:40:14.127Z,11.20
2022-10-01T00:42:42.255Z,11.20
2022-10-01T00:45:13.071Z,11.20
2022-10-01T00:47:44.790Z,11.20
2022-10-01T00:50:19.650Z,11.20
2022-10-01T00:52:54.901Z,11.20
2022-10-01T00:55:28.051Z,11.30
2022-10-01T00:57:57.414Z,11.30
2022-10-01T01:00:26.167Z,11.30
2022-10-01T01:02:56.465Z,11.30
2022-10-01T01:05:27.693Z,11.30
2022-10-01T01:07:55.987Z,11.30
2022-10-01T01:10:31.937Z,11.40
2022-10-01T01:13:13.623Z,11.40
2022-10-01T01:15:48.415Z,11.40
2022-10-01T01:18:22.928Z,11.40
2022-10-01T01:21:11.433Z,11.40
2022-10-01T01:24:15.393Z,11.40
2022-10-01T01:27:07.584Z,11.50
2022-10-01T01:29:43.265Z,11.50
2022-10-01T01:32:18.448Z,11.40
2022-10-01T01:34:50.359Z,11.50
2022-10-01T01:37:22.733Z,11.50
2022-10-01T01:39:56.315Z,11.50
2022-10-01T01:42:31.334Z,11.50
2022-10-01T01:45:03.516Z,11.60
2022-10-01T01:47:33.623Z,11.60
2022-10-01T01:50:04.101Z,11.60
2022-10-01T01:52:33.939Z,11.60
2022-10-01T01:55:08.722Z,11.60
2022-10-01T01:57:41.467Z,11.60
2022-10-01T02:00:12.914Z,11.60
2022-10-01T02:02:44.390Z,11.70
2022-10-01T02:05:17.009Z,11.70
2022-10-01T02:08:12.285Z,11.70
2022-10-01T02:10:59.533Z,11.70
2022-10-01T02:13:39.115Z,11.70
2022-10-01T02:16:19.306Z,11.70
2022-10-01T02:18:53.612Z,11.80
2022-10-01T02:21:24.727Z,11.80
2022-10-01T02:23:58.231Z,11.80
2022-10-01T02:26:29.101Z,11.80
2022-10-01T02:29:00.508Z,11.90
2022-10-01T02:31:32.273Z,11.90
2022-10-01T02:34:03.440Z,11.90
2022-10-01T02:36:33.638Z,11.90
2022-10-01T02:39:04.326Z,11.90
2022-10-01T02:41:38.657Z,11.90
2022-10-01T02:44:11.745Z,12.00
2022-10-01T02:46:46.191Z,12.00
2022-10-01T02:49:15.250Z,12.00
2022-10-01T02:51:51.593Z,12.00
2022-10-01T02:54:25.727Z,12.10
2022-10-01T02:57:11.777Z,12.10
2022-10-01T02:59:39.944Z,12.10
2022-10-01T03:02:09.853Z,12.20
2022-10-01T03:04:38.794Z,12.20
2022-10-01T03:07:07.433Z,12.20
2022-10-01T03:09:36.722Z,12.30
2022-10-01T03:12:06.814Z,12.30
2022-10-01T03:14:35.057Z,12.30
2022-10-01T03:17:03.244Z,12.40
2022-10-01T03:19:33.112Z,12.50
2022-10-01T03:22:03.235Z,12.50
2022-10-01T03:24:31.328Z,12.50
2022-10-01T03:26:59.767Z,12.50
2022-10-01T03:29:28.458Z,12.60
2022-10-01T03:31:56.957Z,12.50
2022-10-01T03:34:25.107Z,12.60
2022-10-01T03:36:54.893Z,12.60
2022-10-01T03:39:22.988Z,12.70
2022-10-01T03:41:51.101Z,12.70
2022-10-01T03:44:19.503Z,12.70
2022-10-01T03:46:47.576Z,12.80
2022-10-01T03:49:16.035Z,12.80
2022-10-01T03:51:45.219Z,12.80
2022-10-01T03:54:15.204Z,12.80
2022-10-01T03:56:43.747Z,12.80
2022-10-01T03:59:12.033Z,12.90
2022-10-01T04:01:40.563Z,12.80
2022-10-01T04:04:09.740Z,12.90
2022-10-01T04:06:37.895Z,12.90
2022-10-01T04:09:06.729Z,12.90
2022-10-01T04:11:36.916Z,12.90
2022-10-01T04:14:05.748Z,13.00
2022-10-01T04:16:36.487Z,13.00
2022-10-01T04:19:05.285Z,13.00
2022-10-01T04:21:33.910Z,12.90
2022-10-01T04:24:05.175Z,12.90
2022-10-01T04:26:35.111Z,13.00
2022-10-01T04:29:03.275Z,12.90
2022-10-01T04:31:35.348Z,13.00
2022-10-01T04:34:04.465Z,13.00
2022-10-01T04:36:32.586Z,13.00
2022-10-01T04:39:02.375Z,12.90
2022-10-01T04:41:32.010Z,13.00
2022-10-01T04:44:02.069Z,13.00
2022-10-01T04:46:30.880Z,13.00
2022-10-01T04:48:59.423Z,13.00
2022-10-01T04:51:27.709Z,13.10
2022-10-01T04:53:55.841Z,13.10
2022-10-01T04:56:24.104Z,13.10
2022-10-01T04:58:52.333Z,13.10
2022-10-01T05:01:21.867Z,13.10
2022-10-01T05:03:50.458Z,13.20
2022-10-01T05:06:18.707Z,13.10
2022-10-01T05:08:49.729Z,13.10
2022-10-01T05:11:18.066Z,13.10
2022-10-01T05:13:46.545Z,13.10
2022-10-01T05:16:14.691Z,13.00
2022-10-01T05:18:45.150Z,13.10
2022-10-01T05:21:15.642Z,13.10
2022-10-01T05:23:44.461Z,13.00
2022-10-01T05:26:12.665Z,13.10
2022-10-01T05:28:44.624Z,13.00
2022-10-01T05:31:13.820Z,13.10
2022-10-01T05:33:43.402Z,13.10
2022-10-01T05:36:11.653Z,13.10
2022-10-01T05:38:39.783Z,13.20
2022-10-01T05:41:07.976Z,13.10
2022-10-01T05:43:36.369Z,13.20
2022-10-01T05:46:06.520Z,13.20
2022-10-01T05:48:37.798Z,13.20
2022-10-01T05:51:08.651Z,13.20
2022-10-01T05:53:38.493Z,13.20
2022-10-01T05:56:07.183Z,13.30
2022-10-01T05:58:35.649Z,13.30
2022-10-01T06:01:04.921Z,13.40
2022-10-01T06:03:33.082Z,13.50
2022-10-01T06:06:01.946Z,13.50
2022-10-01T06:08:31.584Z,13.50
2022-10-01T06:11:03.430Z,13.60
2022-10-01T06:13:32.172Z,13.50
2022-10-01T06:16:00.365Z,13.50
2022-10-01T06:18:31.325Z,13.60
2022-10-01T06:21:02.564Z,13.60
2022-10-01T06:23:32.104Z,13.60
2022-10-01T06:26:00.990Z,13.50
2022-10-01T06:28:29.702Z,13.50
2022-10-01T06:30:57.938Z,13.50
2022-10-01T06:33:26.326Z,13.50
2022-10-01T06:35:54.456Z,13.50
2022-10-01T06:38:24.203Z,13.60
2022-10-01T06:40:55.660Z,13.70
2022-10-01T06:43:24.709Z,13.70
2022-10-01T06:45:53.371Z,13.80
2022-10-01T06:48:22.187Z,13.80
2022-10-01T06:50:52.208Z,13.80
2022-10-01T06:53:20.555Z,13.90
2022-10-01T06:55:50.085Z,13.90
2022-10-01T06:58:21.655Z,14.00
2022-10-01T07:00:50.770Z,14.00
2022-10-01T07:03:21.328Z,14.00
2022-10-01T07:05:50.328Z,14.10
2022-10-01T07:08:18.939Z,14.10
2022-10-01T07:10:47.174Z,14.30
2022-10-01T07:13:17.755Z,14.40
2022-10-01T07:15:47.796Z,14.40
2022-10-01T07:18:16.952Z,14.40
2022-10-01T07:20:45.039Z,14.50
2022-10-01T07:23:15.255Z,14.70
2022-10-01T07:25:44.572Z,14.80
2022-10-01T07:28:18.660Z,14.80
2022-10-01T07:30:58.292Z,14.80
2022-10-01T07:33:26.893Z,14.80
2022-10-01T07:35:55.205Z,14.80
2022-10-01T07:38:23.500Z,14.90
2022-10-01T07:40:55.203Z,15.00
2022-10-01T07:43:23.991Z,15.00
2022-10-01T07:45:55.268Z,15.00
2022-10-01T07:48:23.721Z,15.00
2022-10-01T07:50:52.324Z,15.10
2022-10-01T07:53:20.976Z,15.20
2022-10-01T07:55:49.122Z,15.30
2022-10-01T07:58:18.716Z,15.40
2022-10-01T08:00:46.985Z,15.40
2022-10-01T08:03:16.697Z,15.50
2022-10-01T08:05:46.452Z,15.60
2022-10-01T08:08:14.600Z,15.60
2022-10-01T08:10:43.010Z,15.60
2022-10-01T08:13:15.362Z,15.70
2022-10-01T08:15:44.893Z,15.70
2022-10-01T08:18:13.460Z,15.80
2022-10-01T08:20:43.317Z,15.90
2022-10-01T08:23:14.300Z,15.80
2022-10-01T08:25:44.447Z,15.90
2022-10-01T08:28:13.451Z,15.90
2022-10-01T08:30:43.610Z,15.80
2022-10-01T08:33:13.579Z,15.90
2022-10-01T08:35:43.631Z,15.90
2022-10-01T08:38:12.633Z,15.90
2022-10-01T08:40:46.615Z,16.00
2022-10-01T08:43:31.216Z,16.00
2022-10-01T08:46:02.652Z,15.80
2022-10-01T08:48:46.079Z,15.80
2022-10-01T08:51:23.033Z,15.90
2022-10-01T08:53:55.235Z,15.90
2022-10-01T08:56:25.904Z,15.90
2022-10-01T08:58:59.207Z,15.90
2022-10-01T09:01:28.486Z,15.90
2022-10-01T09:03:57.203Z,15.90
2022-10-01T09:06:28.819Z,15.90
2022-10-01T09:09:09.333Z,16.00
2022-10-01T09:11:48.945Z,16.00
2022-10-01T09:14:51.755Z,16.00
2022-10-01T09:17:29.391Z,16.20
2022-10-01T09:20:04.866Z,16.40
2022-10-01T09:22:40.427Z,16.70
2022-10-01T09:25:15.407Z,17.00
2022-10-01T09:27:44.208Z,17.20
2022-10-01T09:30:16.068Z,17.30
2022-10-01T09:32:48.134Z,17.30
2022-10-01T09:35:30.925Z,17.20
2022-10-01T09:38:04.808Z,17.00
2022-10-01T09:40:39.429Z,16.90
2022-10-01T09:43:09.249Z,16.90
2022-10-01T09:45:39.597Z,16.70
2022-10-01T09:48:19.777Z,16.60
2022-10-01T09:50:54.572Z,16.70
2022-10-01T09:53:29.114Z,16.60
2022-10-01T09:56:02.374Z,16.70
2022-10-01T09:58:31.437Z,16.70
2022-10-01T10:01:00.746Z,16.80
2022-10-01T10:03:30.764Z,16.90
2022-10-01T10:06:02.020Z,16.90
2022-10-01T10:08:37.012Z,17.00
2022-10-01T10:11:09.575Z,17.00
2022-10-01T10:13:40.912Z,17.20
2022-10-01T10:16:15.439Z,17.40
2022-10-01T10:18:43.854Z,17.40
2022-10-01T10:21:17.118Z,17.50
2022-10-01T10:23:51.470Z,17.50
2022-10-01T10:26:22.533Z,17.50
2022-10-01T10:28:50.717Z,17.50
2022-10-01T10:31:24.446Z,17.40
2022-10-01T10:33:55.587Z,17.20
2022-10-01T10:36:29.099Z,17.00
2022-10-01T10:39:00.093Z,16.90
2022-10-01T10:41:31.016Z,16.80
2022-10-01T10:44:02.282Z,16.80
2022-10-01T10:46:32.435Z,16.70
2022-10-01T10:49:06.396Z,16.70
2022-10-01T10:51:45.784Z,16.80
2022-10-01T10:54:32.526Z,17.20
2022-10-01T10:57:03.470Z,17.60
2022-10-01T10:59:33.476Z,17.90
2022-10-01T11:02:03.929Z,18.30
2022-10-01T11:04:40.994Z,18.40
2022-10-01T11:07:11.361Z,18.60
2022-10-01T11:09:52.534Z,18.90
2022-10-01T11:12:35.484Z,19.10
2022-10-01T11:15:17.659Z,19.40
2022-10-01T11:18:20.783Z,19.50
2022-10-01T11:21:00.947Z,19.30
2022-10-01T11:23:55.277Z,19.10
2022-10-01T11:26:32.113Z,19.00
2022-10-01T11:29:13.350Z,18.60
2022-10-01T11:31:52.785Z,18.30
2022-10-01T11:34:53.056Z,18.00
2022-10-01T11:37:41.860Z,17.80
2022-10-01T11:40:18.812Z,17.80
2022-10-01T11:42:51.048Z,17.70
2022-10-01T11:45:22.925Z,17.50
2022-10-01T11:47:55.559Z,17.40
2022-10-01T11:50:26.676Z,17.60
2022-10-01T11:52:58.937Z,18.10
2022-10-01T11:55:49.307Z,18.50
2022-10-01T11:58:44.359Z,18.90
2022-10-01T12:01:18.840Z,19.10
2022-10-01T12:04:01.875Z,19.30
2022-10-01T12:06:34.414Z,19.40
2022-10-01T12:09:09.019Z,19.40
2022-10-01T12:11:43.678Z,19.50
2022-10-01T12:14:18.612Z,19.60
2022-10-01T12:16:52.933Z,19.90
2022-10-01T12:19:26.482Z,20.20
2022-10-01T12:21:58.887Z,20.40
2022-10-01T12:24:32.650Z,20.60
2022-10-01T12:27:21.009Z,20.60
2022-10-01T12:29:59.645Z,20.90
2022-10-01T12:32:37.425Z,21.00
2022-10-01T12:35:19.239Z,21.00
2022-10-01T12:38:02.973Z,20.90
2022-10-01T12:40:40.038Z,20.40
2022-10-01T12:43:25.875Z,19.90
2022-10-01T12:46:03.578Z,19.40
2022-10-01T12:48:37.550Z,19.30
2022-10-01T12:51:24.103Z,19.40
2022-10-01T12:54:02.607Z,19.20
2022-10-01T12:56:34.940Z,19.20
2022-10-01T12:59:40.893Z,19.10
2022-10-01T13:02:28.248Z,19.00
2022-10-01T13:05:10.563Z,19.10
2022-10-01T13:08:08.155Z,19.20
2022-10-01T13:10:48.823Z,19.40
2022-10-01T13:13:22.632Z,19.80
2022-10-01T13:15:56.170Z,20.10
2022-10-01T13:18:37.114Z,20.10
2022-10-01T13:21:14.491Z,20.10
2022-10-01T13:23:50.439Z,20.20
2022-10-01T13:26:23.441Z,20.30
2022-10-01T13:29:02.249Z,20.50
2022-10-01T13:31:40.284Z,20.20
2022-10-01T13:34:35.169Z,19.90
2022-10-01T13:37:14.752Z,19.80
2022-10-01T13:39:43.671Z,19.90
2022-10-01T13:42:21.657Z,20.00
2022-10-01T13:44:56.563Z,20.30
2022-10-01T13:47:25.929Z,20.50
2022-10-01T13:50:04.011Z,20.60
2022-10-01T13:52:33.228Z,20.70
2022-10-01T13:55:03.092Z,20.90
2022-10-01T13:57:34.878Z,21.00
2022-10-01T14:00:21.154Z,20.80
2022-10-01T14:03:06.139Z,20.40
2022-10-01T14:05:37.982Z,19.90
2022-10-01T14:08:15.716Z,19.60
2022-10-01T14:11:10.217Z,19.70
2022-10-01T14:14:03.506Z,20.00
2022-10-01T14:16:36.976Z,20.00
2022-10-01T14:19:06.101Z,20.20
2022-10-01T14:21:50.242Z,20.30
2022-10-01T14:24:27.491Z,20.40
2022-10-01T14:26:59.732Z,20.50
2022-10-01T14:29:44.328Z,20.40
2022-10-01T14:32:24.129Z,20.40
2022-10-01T14:35:07.038Z,20.30
2022-10-01T14:37:41.218Z,20.10
2022-10-01T14:40:17.748Z,19.90
2022-10-01T14:42:45.940Z,19.60
2022-10-01T14:45:19.049Z,19.40
2022-10-01T14:47:48.881Z,19.20
2022-10-01T14:50:21.680Z,19.10
2022-10-01T14:52:54.981Z,19.00
2022-10-01T14:55:25.627Z,18.90
2022-10-01T14:57:55.937Z,18.80
2022-10-01T15:00:26.494Z,18.80
2022-10-01T15:03:03.433Z,18.80
2022-10-01T15:05:33.488Z,18.70
2022-10-01T15:08:13.389Z,18.70
2022-10-01T15:10:45.761Z,18.60
2022-10-01T15:13:21.397Z,18.60
2022-10-01T15:15:50.023Z,18.60
2022-10-01T15:18:19.180Z,18.60
2022-10-01T15:20:56.205Z,18.60
2022-10-01T15:23:28.902Z,18.50
2022-10-01T15:26:02.226Z,18.50
2022-10-01T15:28:35.214Z,18.50
2022-10-01T15:31:05.469Z,18.40
2022-10-01T15:33:36.066Z,18.40
2022-10-01T15:36:07.049Z,18.40
2022-10-01T15:38:37.209Z,18.40
2022-10-01T15:41:30.454Z,18.30
2022-10-01T15:43:58.550Z,18.30
2022-10-01T15:46:33.198Z,18.20
2022-10-01T15:49:18.115Z,18.30
2022-10-01T15:52:12.440Z,18.20
2022-10-01T15:54:44.129Z,18.10
2022-10-01T15:57:18.657Z,18.10
2022-10-01T15:59:47.711Z,18.10
2022-10-01T16:02:20.604Z,18.00
2022-10-01T16:04:52.240Z,18.00
2022-10-01T16:07:23.363Z,18.00
2022-10-01T16:09:58.677Z,17.90
2022-10-01T16:12:29.243Z,17.90
2022-10-01T16:15:02.452Z,17.80
2022-10-01T16:17:35.601Z,17.80
2022-10-01T16:20:35.901Z,17.80
2022-10-01T16:23:35.872Z,17.80
2022-10-01T16:26:27.683Z,17.70
2022-10-01T16:28:56.843Z,17.70
2022-10-01T16:31:25.759Z,17.70
2022-10-01T16:33:54.181Z,17.70
2022-10-01T16:36:24.418Z,17.60
2022-10-01T16:38:53.411Z,17.60
2022-10-01T16:41:26.315Z,17.70
2022-10-01T16:43:57.142Z,17.70
2022-10-01T16:46:25.469Z,17.70
2022-10-01T16:48:54.211Z,17.60
2022-10-01T16:51:22.967Z,17.60
2022-10-01T16:53:52.364Z,17.60
2022-10-01T16:56:26.969Z,17.50
2022-10-01T16:58:55.457Z,17.50
2022-10-01T17:01:23.796Z,17.50
2022-10-01T17:03:52.021Z,17.40
2022-10-01T17:06:20.274Z,17.40
2022-10-01T17:08:48.622Z,17.30
2022-10-01T17:11:16.962Z,17.20
2022-10-01T17:13:46.766Z,17.20
2022-10-01T17:16:15.370Z,17.20
2022-10-01T17:18:44.019Z,17.10
2022-10-01T17:21:13.020Z,17.00
2022-10-01T17:23:41.528Z,17.00
2022-10-01T17:26:10.127Z,17.00
2022-10-01T17:28:38.593Z,16.90
2022-10-01T17:31:13.219Z,16.80
2022-10-01T17:33:43.874Z,16.80
2022-10-01T17:36:12.623Z,16.70
2022-10-01T17:38:41.182Z,16.60
2022-10-01T17:41:09.416Z,16.50
2022-10-01T17:43:39.435Z,16.50
2022-10-01T17:46:09.255Z,16.40
2022-10-01T17:48:37.594Z,16.30
2022-10-01T17:51:07.253Z,16.30
2022-10-01T17:53:42.103Z,16.20
2022-10-01T17:56:13.511Z,16.20
2022-10-01T17:58:45.391Z,16.10
2022-10-01T18:01:20.050Z,16.10
2022-10-01T18:03:48.432Z,16.00
2022-10-01T18:06:16.702Z,16.00
2022-10-01T18:08:55.251Z,15.90
2022-10-01T18:11:24.970Z,15.80
2022-10-01T18:13:53.613Z,15.80
2022-10-01T18:16:24.251Z,15.70
2022-10-01T18:21:45.249Z,15.70
2022-10-01T18:24:13.748Z,15.60
2022-10-01T18:26:45.745Z,15.60
2022-10-01T18:29:19.885Z,15.50
2022-10-01T18:31:52.796Z,15.60
2022-10-01T18:34:26.268Z,15.60
2022-10-01T18:36:59.438Z,15.60
2022-10-01T18:39:34.671Z,15.60
2022-10-01T18:42:13.514Z,15.60
2022-10-01T18:44:41.967Z,15.50
2022-10-01T18:47:22.309Z,15.50
2022-10-01T18:50:18.460Z,15.50
2022-10-01T18:52:59.996Z,15.50
2022-10-01T18:56:10.869Z,15.40
2022-10-01T18:58:54.276Z,15.40
2022-10-01T19:01:31.854Z,15.40
2022-10-01T19:04:29.959Z,15.40
2022-10-01T19:07:09.775Z,15.30
2022-10-01T19:09:52.053Z,15.30
2022-10-01T19:12:35.619Z,15.20
2022-10-01T19:15:13.834Z,15.20
2022-10-01T19:17:50.996Z,15.20
2022-10-01T19:20:55.832Z,15.20
2022-10-01T19:23:48.352Z,15.20
2022-10-01T19:26:25.296Z,15.20
2022-10-01T19:29:06.360Z,15.20
2022-10-01T19:31:41.395Z,15.20
2022-10-01T19:34:19.055Z,15.20
2022-10-01T19:36:53.955Z,15.20
2022-10-01T19:39:27.469Z,15.20
2022-10-01T19:42:00.682Z,15.20
2022-10-01T19:44:35.386Z,15.20
2022-10-01T19:47:16.535Z,15.20
2022-10-01T19:49:48.984Z,15.20
2022-10-01T19:52:20.164Z,15.20
2022-10-01T19:54:54.143Z,15.20
2022-10-01T19:57:24.599Z,15.20
2022-10-01T19:59:56.992Z,15.20
2022-10-01T20:02:33.910Z,15.20
2022-10-01T20:05:06.502Z,15.20
2022-10-01T20:07:47.183Z,15.20
2022-10-01T20:10:22.163Z,15.20
2022-10-01T20:12:59.451Z,15.20
2022-10-01T20:15:38.786Z,15.20
2022-10-01T20:18:17.567Z,15.20
2022-10-01T20:21:01.099Z,15.20
2022-10-01T20:23:40.658Z,15.20
2022-10-01T20:26:16.988Z,15.20
2022-10-01T20:28:52.954Z,15.20
2022-10-01T20:31:28.415Z,15.30
2022-10-01T20:34:02.953Z,15.30
2022-10-01T20:36:39.416Z,15.30
2022-10-01T20:39:17.364Z,15.30
2022-10-01T20:41:49.297Z,15.30
2022-10-01T20:44:22.849Z,15.30
2022-10-01T20:46:54.862Z,15.30
2022-10-01T20:49:29.847Z,15.30
2022-10-01T20:52:05.469Z,15.30
2022-10-01T20:54:40.142Z,15.30
2022-10-01T20:57:17.065Z,15.30
2022-10-01T20:59:51.393Z,15.30
2022-10-01T21:02:29.901Z,15.30
2022-10-01T21:05:04.189Z,15.30
2022-10-01T21:07:38.077Z,15.30
2022-10-01T21:10:18.411Z,15.20
2022-10-01T21:12:55.910Z,15.20
2022-10-01T21:15:29.749Z,15.20
2022-10-01T21:18:03.901Z,15.20
2022-10-01T21:20:51.703Z,15.20
2022-10-01T21:23:35.208Z,15.20
2022-10-01T21:26:15.120Z,15.20
2022-10-01T21:29:17.234Z,15.20
2022-10-01T21:31:54.667Z,15.20
2022-10-01T21:34:33.806Z,15.10
2022-10-01T21:37:06.311Z,15.10
2022-10-01T21:39:40.281Z,15.10
2022-10-01T21:42:17.141Z,15.10
2022-10-01T21:45:21.981Z,15.20
2022-10-01T21:48:14.191Z,15.10
2022-10-01T21:50:51.475Z,15.10
2022-10-01T21:53:46.478Z,15.10
2022-10-01T21:56:39.174Z,15.10
2022-10-01T21:59:20.372Z,15.00
2022-10-01T22:02:03.432Z,15.00
2022-10-01T22:04:40.140Z,15.00
2022-10-01T22:07:17.976Z,15.00
2022-10-01T22:09:57.388Z,15.00
2022-10-01T22:12:28.987Z,15.00
2022-10-01T22:15:00.057Z,15.00
2022-10-01T22:17:33.039Z,15.00
2022-10-01T22:20:05.258Z,15.00
2022-10-01T22:22:38.331Z,15.00
2022-10-01T22:25:09.057Z,15.00
2022-10-01T22:27:44.578Z,15.00
2022-10-01T22:30:17.247Z,15.00
2022-10-01T22:32:52.561Z,14.90
2022-10-01T22:35:27.151Z,14.90
2022-10-01T22:38:00.018Z,14.90
2022-10-01T22:40:34.060Z,14.90
2022-10-01T22:43:06.319Z,14.90
2022-10-01T22:45:47.991Z,15.00
2022-10-01T22:48:41.129Z,15.00
2022-10-01T22:51:22.883Z,15.00
2022-10-01T22:54:09.391Z,15.00
2022-10-01T22:56:47.339Z,15.10
2022-10-01T22:59:26.381Z,15.10
2022-10-01T23:02:06.205Z,15.00
2022-10-01T23:04:45.466Z,15.00
2022-10-01T23:07:20.503Z,15.00
2022-10-01T23:09:55.271Z,15.00
2022-10-01T23:12:32.880Z,15.00
2022-10-01T23:15:13.303Z,15.00
2022-10-01T23:17:48.113Z,15.10
2022-10-01T23:20:30.106Z,15.10
2022-10-01T23:23:19.891Z,15.10
2022-10-01T23:26:03.540Z,15.10
2022-10-01T23:28:43.188Z,15.10
2022-10-01T23:31:19.534Z,15.10
2022-10-01T23:34:01.297Z,15.10
2022-10-01T23:36:37.660Z,15.10
2022-10-01T23:39:38.864Z,15.10
2022-10-01T23:42:20.302Z,15.10
2022-10-01T23:44:58.271Z,15.10
2022-10-01T23:47:34.583Z,15.10
2022-10-01T23:50:07.560Z,15.20
2022-10-01T23:52:41.861Z,15.20
2022-10-01T23:55:34.926Z,15.20
2022-10-01T23:58:05.168Z,15.20
